Get Adobe Flash player

Seitennavigation

Webcam Flugfeld LOAR

Gäste online

Aktuell sind 16 Gäste und keine Mitglieder online

Sonnenaufgang Sonnenuntergang

Mon 25 Jul
Sunrise 05:17
Sunset 20:41

Aviation WX

[Quelle: ADDS]
METAR
LOWW 252120Z 28011KT 9999 FEW045CB SCT095 BKN300 24/17 Q1017 NOSIG =
TAF
LOWW 251715Z 2518/2624 27006KT CAVOK TX28/2612Z TN20/2603Z TEMPO 2518/2519 9999 FEW040CB BKN300 TEMPO 2610/2619 31008KT 9999 FEW040CB BKN300 PROB30 TEMPO 2614/2619 VRB15G25KT 5000 TSRA BKN040CB =